Flight Track Log - Related Links

Times and Time Zones

All times are in EDT time to prevent confusion due to time zone crossing. See the AAR8733 flight status page for this flight to view local times or setup timezone preferences in your user account.

Time Position Orientation Groundspeed Altitude Reporting Facility
EDT Latitude Longitude Course Direction KTS MPH feet Rate Location/Type
Wed 08:59:00 PM 37.2381 126.8909 166° South  Level Estimated
Wed 09:00:00 PM 37.1580 126.9158 166° South  Level Estimated
Wed 09:01:00 PM 37.0780 126.9407 166° South  Level Estimated
Wed 09:02:00 PM 36.9979 126.9655 166° South  Level Estimated
Wed 09:03:00 PM 36.9178 126.9903 166° South  Level Estimated
Wed 09:04:00 PM 36.8377 127.0150 166° South  Level Estimated
Wed 09:05:00 PM 36.7576 127.0397 166° South  Level Estimated
Wed 09:06:00 PM 36.6775 127.0643 166° South  Level Estimated
Wed 09:07:00 PM 36.5974 127.0889 166° South  Level Estimated
Wed 09:08:00 PM 36.5173 127.1134 166° South  Level Estimated
Wed 09:09:00 PM 36.4372 127.1379 166° South  Level Estimated
Wed 09:10:00 PM 36.3571 127.1623 166° South  Level Estimated
Wed 09:11:00 PM 36.2770 127.1867 166° South  Level Estimated
Wed 09:12:00 PM 36.1968 127.2110 166° South  Level Estimated
Wed 09:13:00 PM 36.1167 127.2353 166° South  Level Estimated
Wed 09:14:00 PM 36.0366 127.2595 166° South  Level Estimated
Wed 09:15:00 PM 35.9564 127.2837 166° South  Level Estimated
Wed 09:16:00 PM 35.8763 127.3078 166° South  Level Estimated
Wed 09:17:00 PM 35.7961 127.3319 166° South  Level Estimated
Wed 09:18:00 PM 35.7160 127.3559 166° South  Level Estimated
Wed 09:19:00 PM 35.6358 127.3799 166° South  Level Estimated
Wed 09:20:00 PM 35.5556 127.4038 166° South  Level Estimated
Wed 09:21:00 PM 35.4755 127.4277 166° South  Level Estimated
Wed 09:22:00 PM 35.3953 127.4515 166° South  Level Estimated
Wed 09:23:00 PM 35.3151 127.4753 166° South  Level Estimated
Wed 09:24:00 PM 35.2349 127.4990 166° South  Level Estimated
Wed 09:25:00 PM 35.1547 127.5227 166° South  Level Estimated
Wed 09:26:00 PM 35.0745 127.5464 166° South  Level Estimated
Wed 09:27:00 PM 34.9943 127.5700 166° South  Level Estimated
Wed 09:28:00 PM 34.9141 127.5935 166° South  Level Estimated
Wed 09:29:00 PM 34.8398 127.6153 166° South  Level Estimated
Wed 09:30:00 PM 34.8398 127.6153 180° South  Level Estimated
Wed 09:31:00 PM 34.8398 127.6153 180° South  Level Estimated
Wed 09:32:00 PM 34.8398 127.6153 180° South  Level Estimated
Wed 09:33:00 PM 34.8398 127.6153 180° South  Level Estimated
Wed 09:34:00 PM 34.8398 127.6153 180° South  Level Estimated
Wed 09:35:00 PM 34.8398 127.6153 180° South  Level Estimated
Wed 09:36:00 PM 34.8398 127.6153 180° South  Level Estimated
Wed 09:37:00 PM 34.8398 127.6153 180° South  Level Estimated
Wed 09:38:00 PM 34.8398 127.6153 180° South  Level Estimated
Wed 09:39:00 PM 34.8398 127.6153 180° South  Level Estimated
Wed 09:40:00 PM 34.8398 127.6153 180° South  Level Estimated
Wed 09:41:00 PM 34.8398 127.6153 180° South  Level Estimated
Wed 09:42:00 PM 34.8398 127.6153 180° South  Level Estimated
Wed 09:43:00 PM 34.8398 127.6153 180° South  Level Estimated
Wed 09:44:00 PM 34.8398 127.6153 180° South  Level Estimated
Wed 09:45:00 PM 34.8398 127.6153 180° South  Level Estimated

Login

Don't have an account? Register now (free) for customized features, flight alerts, and more!